Time;durP1;ratioP1;P1;durP2;ratioP2;P2;SDS_P1;SDS_P2;PMS_P1;PMS_P2;Temp;Humidity;BMP_temperature;BMP_pressure;BME280_temperature;BME280_humidity;BME280_pressure;Samples;Min_cycle;Max_cycle;Signal;HPM_P1;HPM_P2
2023/01/11 00:00:32;;;;;;;;;;;;;;;12.84;76.04;100153.38;1051848;28;837;-73
2023/01/11 00:01:22;;;;;;;;;;;;;;;12.85;75.68;100149.72;1051549;28;1176;-74
2023/01/11 00:02:13;;;;;;;;;;;;;;;12.87;75.83;100152.25;1051726;28;859;-73
2023/01/11 00:03:03;;;;;;;;;;;;;;;12.87;76.00;100146.91;1051596;28;1218;-73
2023/01/11 00:03:53;;;;;;;;;;;;;;;12.86;76.58;100145.22;1049651;28;1135;-73
2023/01/11 00:04:46;;;;;;;;;;;;;;;12.88;75.95;100142.41;1052502;28;697;-73
2023/01/11 00:05:36;;;;;;;;;;;;;;;12.87;75.68;100146.91;1049013;28;595;-74
2023/01/11 00:06:27;;;;;;;;;;;;;;;12.89;76.10;100154.81;1049152;28;602;-74
2023/01/11 00:07:17;;;;;;;;;;;;;;;12.88;76.59;100147.75;1048486;28;654;-73
2023/01/11 00:08:08;;;;;;;;;;;;;;;12.89;75.79;100146.78;1049146;28;614;-73
2023/01/11 00:08:58;;;;;;;;;;;;;;;12.89;76.45;100150.31;1049816;28;1048;-73
2023/01/11 00:09:49;;;;;;;;;;;;;;;12.89;75.78;100154.81;1052793;28;718;-74
2023/01/11 00:10:39;;;;;;;;;;;;;;;12.87;76.43;100146.91;1051926;28;1178;-73
2023/01/11 00:11:30;;;;;;;;;;;;;;;12.89;76.46;100149.47;1052751;28;714;-74
2023/01/11 00:12:20;;;;;;;;;;;;;;;12.89;76.55;100146.78;1052561;28;657;-73
2023/01/11 00:13:10;;;;;;;;;;;;;;;12.89;76.10;100146.78;1052601;28;791;-73
2023/01/11 00:14:01;;;;;;;;;;;;;;;12.89;76.38;100144.94;1049232;28;680;-73
2023/01/11 00:14:51;;;;;;;;;;;;;;;12.90;75.73;100145.81;1052496;28;689;-73
2023/01/11 00:15:42;;;;;;;;;;;;;;;12.89;75.95;100152.97;1052661;28;1663;-73
2023/01/11 00:16:32;;;;;;;;;;;;;;;12.90;75.87;100148.47;1052383;28;734;-73
2023/01/11 00:17:23;;;;;;;;;;;;;;;12.90;76.16;100145.81;1052479;28;1174;-73
2023/01/11 00:18:13;;;;;;;;;;;;;;;12.91;76.26;100142.13;1052422;28;738;-73
2023/01/11 00:19:03;;;;;;;;;;;;;;;12.90;76.31;100132.44;1049576;28;626;-73
2023/01/11 00:19:54;;;;;;;;;;;;;;;12.89;76.00;100147.63;1052752;28;1095;-73
2023/01/11 00:20:44;;;;;;;;;;;;;;;12.89;76.19;100144.09;1052547;28;634;-73
2023/01/11 00:21:35;;;;;;;;;;;;;;;12.90;75.69;100140.44;1051645;28;965;-73
2023/01/11 00:22:26;;;;;;;;;;;;;;;12.89;76.15;100136.09;1052480;28;712;-73
2023/01/11 00:23:16;;;;;;;;;;;;;;;12.90;76.42;100143.13;1051719;28;1111;-73
2023/01/11 00:24:06;;;;;;;;;;;;;;;12.87;75.69;100141.56;1052642;28;717;-73
2023/01/11 00:24:57;;;;;;;;;;;;;;;12.87;76.18;100146.91;1052113;28;1068;-73
2023/01/11 00:25:47;;;;;;;;;;;;;;;12.85;76.63;100138.16;1052299;28;1635;-73
2023/01/11 00:26:38;;;;;;;;;;;;;;;12.88;76.54;100137.06;1052047;28;1048;-73
2023/01/11 00:27:28;;;;;;;;;;;;;;;12.90;76.37;100140.44;1049034;28;944;-73
2023/01/11 00:28:19;;;;;;;;;;;;;;;12.90;75.81;100140.44;1044674;28;709;-74
2023/01/11 00:29:09;;;;;;;;;;;;;;;12.89;76.28;100136.09;1050473;28;1159;-73
2023/01/11 00:29:59;;;;;;;;;;;;;;;12.90;75.76;100135.09;1052634;28;649;-73
2023/01/11 00:30:50;;;;;;;;;;;;;;;12.89;76.46;100136.94;1052630;28;949;-73
2023/01/11 00:31:40;;;;;;;;;;;;;;;12.90;75.95;100137.78;1052537;28;618;-74
2023/01/11 00:32:31;;;;;;;;;;;;;;;12.90;76.15;100135.09;1052699;28;948;-73
2023/01/11 00:33:21;;;;;;;;;;;;;;;12.89;75.80;100138.75;1048952;28;701;-73
2023/01/11 00:34:12;;;;;;;;;;;;;;;12.89;76.17;100130.75;1052253;28;1437;-74
2023/01/11 00:35:02;;;;;;;;;;;;;;;12.90;75.86;100140.44;1052227;28;1130;-73
2023/01/11 00:35:52;;;;;;;;;;;;;;;12.89;76.36;100141.44;1053019;28;686;-74
2023/01/11 00:36:43;;;;;;;;;;;;;;;12.88;76.46;100131.72;1049635;28;734;-73
2023/01/11 00:37:33;;;;;;;;;;;;;;;12.89;76.41;100138.75;1052231;28;1054;-73
2023/01/11 00:38:42;;;;;;;;;;;;;;;12.90;76.30;100137.78;1052538;28;1146;-74
2023/01/11 00:39:32;;;;;;;;;;;;;;;12.89;76.16;100138.75;1049032;28;677;-73
2023/01/11 00:40:25;;;;;;;;;;;;;;;12.88;75.75;100135.25;1049916;28;623;-73
2023/01/11 00:48:10;;;;;;;;;;;;;;;12.89;75.90;100130.75;1049412;28;649;-74
2023/01/11 00:49:01;;;;;;;;;;;;;;;12.88;76.51;100127.22;1048952;28;682;-74
2023/01/11 00:49:51;;;;;;;;;;;;;;;12.88;75.89;100131.72;1052388;28;662;-73
2023/01/11 00:50:41;;;;;;;;;;;;;;;12.88;76.26;100129.88;1052043;28;1191;-74
2023/01/11 00:51:32;;;;;;;;;;;;;;;12.88;76.19;100132.56;1053188;28;696;-74
2023/01/11 00:52:22;;;;;;;;;;;;;;;12.89;75.85;100125.38;1052328;28;1147;-73
2023/01/11 00:53:13;;;;;;;;;;;;;;;12.89;76.26;100128.06;1052581;28;702;-74
2023/01/11 00:54:03;;;;;;;;;;;;;;;12.90;75.98;100124.41;1052230;28;1163;-74
2023/01/11 00:54:54;;;;;;;;;;;;;;;12.90;75.81;100127.09;1052439;28;1012;-74
2023/01/11 00:55:44;;;;;;;;;;;;;;;12.89;75.80;100122.72;1052419;28;674;-74
2023/01/11 00:56:35;;;;;;;;;;;;;;;12.90;75.96;100127.09;1051288;28;700;-74
2023/01/11 00:57:25;;;;;;;;;;;;;;;12.90;75.82;100141.28;1052343;28;701;-74
2023/01/11 00:58:15;;;;;;;;;;;;;;;12.91;76.46;100128.75;1047957;28;706;-74
2023/01/11 00:59:06;;;;;;;;;;;;;;;12.92;76.30;100138.47;1044490;28;614;-74
2023/01/11 00:59:56;;;;;;;;;;;;;;;12.92;75.74;100117.91;1053165;28;718;-74
2023/01/11 01:00:47;;;;;;;;;;;;;;;12.92;76.16;100120.59;1052617;28;654;-73
2023/01/11 01:01:37;;;;;;;;;;;;;;;12.93;76.45;100124.13;1052714;28;1143;-74
2023/01/11 01:02:28;;;;;;;;;;;;;;;12.92;75.81;100125.94;1049031;28;697;-74
2023/01/11 01:03:18;;;;;;;;;;;;;;;12.92;75.76;100125.09;1049319;28;633;-73
2023/01/11 01:04:09;;;;;;;;;;;;;;;12.92;76.48;100117.06;1052630;28;902;-75
2023/01/11 01:04:59;;;;;;;;;;;;;;;12.92;75.98;100123.28;1049497;28;615;-74
2023/01/11 01:05:50;;;;;;;;;;;;;;;12.93;75.81;100124.13;1050659;28;1234;-74
2023/01/11 01:06:40;;;;;;;;;;;;;;;12.92;76.62;100127.78;1048751;28;748;-74
2023/01/11 01:07:31;;;;;;;;;;;;;;;12.92;76.08;100117.06;1051109;28;1170;-75
2023/01/11 01:08:21;;;;;;;;;;;;;;;12.92;75.62;100123.28;1048691;28;630;-74
2023/01/11 01:09:12;;;;;;;;;;;;;;;12.93;75.85;100127.63;1048955;28;1061;-74
2023/01/11 01:10:02;;;;;;;;;;;;;;;12.93;76.15;100132.13;1052456;28;1814;-73
2023/01/11 01:10:53;;;;;;;;;;;;;;;12.93;75.85;100126.78;1048248;28;639;-74
2023/01/11 01:11:43;;;;;;;;;;;;;;;12.93;76.06;100124.13;1050929;28;1115;-73
2023/01/11 01:14:52;;;;;;;;;;;;;;;12.94;76.30;100131.16;1048389;28;655;-74
2023/01/11 01:15:42;;;;;;;;;;;;;;;12.93;76.48;100124.97;1049893;28;712;-73
2023/01/11 01:16:32;;;;;;;;;;;;;;;12.92;76.43;100120.59;1052409;28;643;-73
2023/01/11 01:17:23;;;;;;;;;;;;;;;12.93;76.19;100130.31;1052577;28;737;-74
2023/01/11 01:18:13;;;;;;;;;;;;;;;12.94;75.73;100125.81;1052106;28;1217;-74
2023/01/11 01:19:04;;;;;;;;;;;;;;;12.93;75.82;100134.81;1052337;28;941;-75
2023/01/11 01:19:54;;;;;;;;;;;;;;;12.96;76.23;100131.88;1052043;28;1759;-74
2023/01/11 01:20:45;;;;;;;;;;;;;;;12.95;75.98;100143.56;1052097;28;668;-74
2023/01/11 01:21:36;;;;;;;;;;;;;;;12.96;75.94;100139.91;1052641;28;646;-74
2023/01/11 01:22:27;;;;;;;;;;;;;;;12.96;76.18;100135.41;1052982;28;825;-73
2023/01/11 01:23:17;;;;;;;;;;;;;;;12.97;76.32;100141.59;1052135;28;760;-74
2023/01/11 01:24:07;;;;;;;;;;;;;;;12.97;75.90;100137.09;1049259;28;665;-74
2023/01/11 01:24:58;;;;;;;;;;;;;;;12.96;76.37;100134.56;1048828;28;630;-74
2023/01/11 01:25:48;;;;;;;;;;;;;;;12.97;75.86;100130.91;1048604;28;667;-74
2023/01/11 01:26:39;;;;;;;;;;;;;;;12.96;76.39;100145.25;1052085;28;1226;-74
2023/01/11 01:27:29;;;;;;;;;;;;;;;12.97;76.32;100146.94;1048842;28;1064;-74
2023/01/11 01:28:20;;;;;;;;;;;;;;;12.97;76.42;100144.28;1052424;28;724;-75
2023/01/11 01:29:12;;;;;;;;;;;;;;;12.97;76.67;100136.25;1048914;28;724;-75
2023/01/11 01:30:02;;;;;;;;;;;;;;;12.97;75.73;100139.78;1049310;28;749;-75
2023/01/11 01:30:53;;;;;;;;;;;;;;;12.97;76.24;100146.94;1052331;28;1202;-74
2023/01/11 01:31:43;;;;;;;;;;;;;;;12.98;76.24;100140.63;1050624;28;740;-75
2023/01/11 01:32:34;;;;;;;;;;;;;;;12.97;75.63;100138.94;1048681;28;740;-75
2023/01/11 01:33:24;;;;;;;;;;;;;;;12.98;75.64;100148.66;1051428;28;696;-75
2023/01/11 01:34:14;;;;;;;;;;;;;;;12.98;75.76;100135.28;1052035;28;1197;-74
2023/01/11 01:35:05;;;;;;;;;;;;;;;12.97;76.60;100141.59;1052459;28;690;-74
2023/01/11 01:35:55;;;;;;;;;;;;;;;12.95;76.53;100148.91;1052230;28;665;-73
2023/01/11 01:36:46;;;;;;;;;;;;;;;12.97;76.10;100141.59;1052361;28;1092;-74
2023/01/11 01:37:36;;;;;;;;;;;;;;;12.96;76.58;100134.56;1051609;28;1150;-74
2023/01/11 01:38:27;;;;;;;;;;;;;;;12.96;75.61;100147.94;1052249;28;762;-75
2023/01/11 01:39:17;;;;;;;;;;;;;;;12.97;76.02;100144.28;1053490;28;716;-74
2023/01/11 01:40:08;;;;;;;;;;;;;;;12.97;76.33;100141.59;1052330;28;780;-74
2023/01/11 01:40:58;;;;;;;;;;;;;;;12.96;76.42;100139.91;1049014;28;712;-75
2023/01/11 01:41:49;;;;;;;;;;;;;;;12.96;75.85;100142.59;1046810;28;1064;-74
2023/01/11 01:42:39;;;;;;;;;;;;;;;12.96;76.30;100142.59;1052730;28;630;-74
2023/01/11 01:43:29;;;;;;;;;;;;;;;12.95;75.98;100144.41;1048940;28;1134;-74
2023/01/11 01:44:20;;;;;;;;;;;;;;;12.94;75.67;100141.88;1052135;28;1671;-74
2023/01/11 01:45:10;;;;;;;;;;;;;;;12.94;75.72;100153.41;1048619;28;982;-74
2023/01/11 01:46:01;;;;;;;;;;;;;;;12.95;76.37;100132.88;1052336;28;725;-74
2023/01/11 01:46:51;;;;;;;;;;;;;;;12.95;75.88;100140.88;1053181;28;1154;-73
2023/01/11 01:47:42;;;;;;;;;;;;;;;12.96;75.87;100139.91;1052251;28;749;-73
2023/01/11 01:48:32;;;;;;;;;;;;;;;12.96;76.05;100150.59;1052908;28;677;-73
2023/01/11 01:49:22;;;;;;;;;;;;;;;12.95;75.75;100143.56;1050932;28;651;-73
2023/01/11 01:50:13;;;;;;;;;;;;;;;12.93;75.72;100141.00;1052275;28;1143;-74
2023/01/11 01:51:03;;;;;;;;;;;;;;;12.94;76.24;100144.53;1049534;28;735;-73
2023/01/11 01:51:54;;;;;;;;;;;;;;;12.95;76.34;100149.75;1049480;28;704;-73
2023/01/11 01:52:44;;;;;;;;;;;;;;;12.94;76.34;100147.22;1052836;28;1489;-74
2023/01/11 01:53:35;;;;;;;;;;;;;;;12.93;76.07;100151.72;1052838;28;635;-75
2023/01/11 01:54:26;;;;;;;;;;;;;;;12.93;76.34;100137.50;1050758;28;1067;-74
2023/01/11 01:55:16;;;;;;;;;;;;;;;12.93;75.90;100148.19;1051999;28;1300;-74
2023/01/11 01:56:07;;;;;;;;;;;;;;;12.93;76.12;100146.34;1049787;28;1969;-75
2023/01/11 01:56:57;;;;;;;;;;;;;;;12.91;75.60;100140.28;1052007;28;641;-74
2023/01/11 01:57:48;;;;;;;;;;;;;;;12.94;76.43;100149.88;1048615;28;633;-73
2023/01/11 01:58:38;;;;;;;;;;;;;;;12.93;76.18;100141.00;1048742;28;674;-73
2023/01/11 01:59:28;;;;;;;;;;;;;;;12.95;76.13;100146.22;1050979;28;1092;-73
2023/01/11 02:00:19;;;;;;;;;;;;;;;12.94;76.49;100147.22;1052423;28;721;-74
2023/01/11 02:02:18;;;;;;;;;;;;;;;12.93;75.97;100145.50;1053259;28;1195;-74
2023/01/11 02:03:11;;;;;;;;;;;;;;;12.95;75.66;100138.22;1053376;28;775;-74
2023/01/11 02:04:01;;;;;;;;;;;;;;;12.94;76.28;100152.56;1048641;28;758;-74
2023/01/11 02:04:51;;;;;;;;;;;;;;;12.94;75.80;100149.88;1052718;28;693;-75
2023/01/11 02:05:42;;;;;;;;;;;;;;;12.95;75.81;100154.25;1048650;28;708;-75
2023/01/11 02:06:32;;;;;;;;;;;;;;;12.96;76.29;100147.94;1048484;28;739;-74
2023/01/11 02:07:23;;;;;;;;;;;;;;;12.96;75.74;100155.94;1048946;28;1044;-75
2023/01/11 02:08:13;;;;;;;;;;;;;;;12.95;75.78;100154.25;1052375;28;752;-72
2023/01/11 02:09:03;;;;;;;;;;;;;;;12.95;75.74;100159.59;1052163;28;688;-74
2023/01/11 02:09:54;;;;;;;;;;;;;;;12.95;76.35;100156.94;1052285;28;697;-74
2023/01/11 02:10:45;;;;;;;;;;;;;;;12.95;76.16;100159.59;1051299;28;1095;-73
2023/01/11 02:11:42;;;;;;;;;;;;;;;12.95;75.92;100154.25;1052326;28;622;-74
2023/01/11 02:12:32;;;;;;;;;;;;;;;12.96;75.91;100151.44;1051496;28;1155;-74
2023/01/11 02:13:22;;;;;;;;;;;;;;;12.96;76.21;100148.78;1051903;28;925;-74
2023/01/11 02:14:13;;;;;;;;;;;;;;;12.97;76.03;100149.63;1052239;28;658;-73
2023/01/11 02:15:03;;;;;;;;;;;;;;;12.95;75.66;100155.09;1051776;28;1830;-73
2023/01/11 02:16:06;;;;;;;;;;;;;;;12.95;75.72;100152.44;1052120;28;641;-73
2023/01/11 02:16:56;;;;;;;;;;;;;;;12.96;76.32;100143.44;1048709;28;1122;-73
2023/01/11 02:17:47;;;;;;;;;;;;;;;12.95;76.44;100149.75;1052115;28;645;-74
2023/01/11 02:18:37;;;;;;;;;;;;;;;12.95;76.11;100148.91;1051356;28;1150;-75
2023/01/11 02:19:28;;;;;;;;;;;;;;;12.96;76.23;100151.44;1052024;28;1198;-76
2023/01/11 02:20:18;;;;;;;;;;;;;;;12.98;76.01;100151.31;1049220;28;673;-75
2023/01/11 02:21:08;;;;;;;;;;;;;;;12.98;75.86;100154.00;1048086;28;682;-75
2023/01/11 02:21:59;;;;;;;;;;;;;;;12.99;76.46;100150.34;1052001;28;1071;-74
2023/01/11 02:22:49;;;;;;;;;;;;;;;13.00;76.53;100146.69;1051957;28;765;-74
2023/01/11 02:23:40;;;;;;;;;;;;;;;13.01;75.78;100149.25;1051775;28;1154;-74
2023/01/11 02:24:30;;;;;;;;;;;;;;;13.00;75.82;100147.53;1052832;28;693;-74
2023/01/11 02:25:20;;;;;;;;;;;;;;;13.01;75.62;100154.59;1052039;28;626;-74
2023/01/11 02:26:11;;;;;;;;;;;;;;;13.01;76.21;100148.41;1052631;28;760;-74
2023/01/11 02:27:01;;;;;;;;;;;;;;;12.99;75.75;100151.19;1048521;28;1494;-74
2023/01/11 02:27:52;;;;;;;;;;;;;;;13.01;76.48;100159.94;1048732;28;745;-75
2023/01/11 02:28:42;;;;;;;;;;;;;;;12.99;75.68;100155.69;1052666;28;1497;-74
2023/01/11 02:29:32;;;;;;;;;;;;;;;13.00;75.79;100146.69;1051362;28;685;-74
2023/01/11 02:30:23;;;;;;;;;;;;;;;13.01;75.96;100145.72;1051727;28;1428;-74
2023/01/11 02:31:13;;;;;;;;;;;;;;;13.01;76.12;100145.72;1048296;28;1015;-74
2023/01/11 02:32:04;;;;;;;;;;;;;;;13.01;75.86;100149.25;1049058;28;705;-74
2023/01/11 02:32:54;;;;;;;;;;;;;;;13.02;76.46;100152.75;1050714;28;1028;-74
2023/01/11 02:33:45;;;;;;;;;;;;;;;13.02;76.01;100155.44;1052103;28;634;-74
2023/01/11 02:34:36;;;;;;;;;;;;;;;13.02;76.26;100147.41;1051853;28;1095;-75
2023/01/11 02:35:27;;;;;;;;;;;;;;;13.02;75.77;100156.28;1052175;28;642;-74
2023/01/11 02:36:17;;;;;;;;;;;;;;;13.01;76.21;100153.75;1048574;28;1898;-75
2023/01/11 02:37:08;;;;;;;;;;;;;;;13.02;76.31;100155.44;1048333;28;642;-74
2023/01/11 02:38:00;;;;;;;;;;;;;;;13.02;76.37;100150.94;1051500;28;1187;-73
2023/01/11 02:38:50;;;;;;;;;;;;;;;13.03;75.94;100151.78;1051622;28;1670;-74
2023/01/11 02:39:41;;;;;;;;;;;;;;;13.03;76.14;100157.13;1052151;28;720;-74
2023/01/11 02:40:31;;;;;;;;;;;;;;;13.04;75.80;100158.84;1052441;28;749;-74
2023/01/11 02:41:22;;;;;;;;;;;;;;;13.03;75.86;100165.16;1049051;28;640;-74
2023/01/11 02:45:39;;;;;;;;;;;;;;;13.04;76.33;100154.34;1052025;28;810;-74
2023/01/11 02:46:30;;;;;;;;;;;;;;;13.04;76.05;100153.47;1049087;28;645;-73
2023/01/11 02:47:20;;;;;;;;;;;;;;;13.03;75.54;100154.47;1048342;28;650;-75
2023/01/11 02:48:11;;;;;;;;;;;;;;;13.02;76.42;100158.97;1050638;28;1147;-74
2023/01/11 02:49:01;;;;;;;;;;;;;;;13.03;75.94;100159.81;1048231;28;693;-74
2023/01/11 02:49:52;;;;;;;;;;;;;;;13.03;76.02;100154.47;1051835;28;1137;-74
2023/01/11 02:50:42;;;;;;;;;;;;;;;13.03;75.66;100157.97;1049219;28;1561;-75
2023/01/11 02:51:33;;;;;;;;;;;;;;;13.03;76.34;100159.81;1048972;28;716;-73
2023/01/11 02:52:23;;;;;;;;;;;;;;;13.03;76.33;100154.47;1048806;28;1190;-75
2023/01/11 02:53:13;;;;;;;;;;;;;;;13.04;76.47;100169.53;1051773;28;684;-75
2023/01/11 02:54:04;;;;;;;;;;;;;;;13.04;76.21;100182.91;1049408;28;1224;-75
2023/01/11 02:54:54;;;;;;;;;;;;;;;13.04;76.07;100164.19;1051778;28;749;-74
2023/01/11 02:55:47;;;;;;;;;;;;;;;13.04;75.93;100169.53;1051746;28;1099;-74
2023/01/11 02:56:37;;;;;;;;;;;;;;;13.04;76.32;100180.22;1052077;28;863;-75
2023/01/11 02:57:28;;;;;;;;;;;;;;;13.03;76.23;100174.03;1052483;28;636;-73
2023/01/11 02:58:18;;;;;;;;;;;;;;;13.04;76.28;100169.53;1051819;28;769;-74
2023/01/11 02:59:09;;;;;;;;;;;;;;;13.04;76.23;100175.72;1052057;28;618;-74
2023/01/11 02:59:59;;;;;;;;;;;;;;;13.04;75.76;100172.22;1051689;28;697;-73
2023/01/11 03:00:50;;;;;;;;;;;;;;;13.04;75.72;100172.22;1052426;28;1190;-74
2023/01/11 03:01:40;;;;;;;;;;;;;;;13.04;76.07;100170.38;1052088;28;746;-73
2023/01/11 03:02:30;;;;;;;;;;;;;;;13.03;76.06;100168.69;1051665;28;1580;-74
2023/01/11 03:03:21;;;;;;;;;;;;;;;13.03;76.04;100168.69;1047873;28;1130;-74
2023/01/11 03:04:11;;;;;;;;;;;;;;;13.03;75.83;100176.72;1051780;28;712;-74
2023/01/11 03:05:02;;;;;;;;;;;;;;;13.03;76.29;100174.03;1047933;28;622;-74
2023/01/11 03:05:52;;;;;;;;;;;;;;;13.04;76.42;100180.22;1048442;28;697;-74
2023/01/11 03:06:43;;;;;;;;;;;;;;;13.03;76.50;100178.53;1049566;28;1060;-74
2023/01/11 03:07:33;;;;;;;;;;;;;;;13.02;76.46;100184.84;1052209;28;622;-74
2023/01/11 03:08:24;;;;;;;;;;;;;;;13.03;76.55;100178.53;1051821;28;586;-74
2023/01/11 03:09:14;;;;;;;;;;;;;;;13.02;76.40;100177.69;1052061;28;1131;-75
2023/01/11 03:10:04;;;;;;;;;;;;;;;13.01;76.01;100178.66;1047644;28;618;-74
2023/01/11 03:10:55;;;;;;;;;;;;;;;13.01;76.18;100172.47;1049124;28;1159;-75
2023/01/11 03:12:54;;;;;;;;;;;;;;;13.02;75.89;100182.19;1050530;28;1016;-75
2023/01/11 03:13:45;;;;;;;;;;;;;;;13.02;75.70;100176.84;1052041;28;593;-76
2023/01/11 03:14:35;;;;;;;;;;;;;;;13.04;76.76;100190.94;1048463;28;630;-75
2023/01/11 03:15:26;;;;;;;;;;;;;;;13.04;75.87;100185.56;1047806;28;709;-75
2023/01/11 03:16:16;;;;;;;;;;;;;;;13.04;76.30;100190.94;1048032;28;1955;-75
2023/01/11 03:17:06;;;;;;;;;;;;;;;13.05;76.08;100189.94;1048054;28;1564;-75
2023/01/11 03:17:57;;;;;;;;;;;;;;;13.05;76.29;100192.63;1048967;28;649;-75
2023/01/11 03:18:47;;;;;;;;;;;;;;;13.05;75.74;100195.31;1052405;28;686;-75
2023/01/11 03:19:38;;;;;;;;;;;;;;;13.05;75.71;100197.97;1049071;28;1114;-75
2023/01/11 03:20:28;;;;;;;;;;;;;;;13.05;76.43;100197.97;1051992;28;698;-74
2023/01/11 03:21:19;;;;;;;;;;;;;;;13.05;75.81;100201.50;1051831;28;689;-75
2023/01/11 03:22:09;;;;;;;;;;;;;;;13.07;76.50;100206.72;1052461;28;1182;-75
2023/01/11 03:22:59;;;;;;;;;;;;;;;13.06;76.29;100202.34;1051835;28;673;-74
2023/01/11 03:23:50;;;;;;;;;;;;;;;13.06;75.63;100194.31;1050520;28;674;-74
2023/01/11 03:24:40;;;;;;;;;;;;;;;13.05;75.70;100197.97;1051713;28;772;-74
2023/01/11 03:25:31;;;;;;;;;;;;;;;13.05;75.95;100196.16;1052337;28;1186;-74
2023/01/11 03:26:22;;;;;;;;;;;;;;;13.04;76.45;100191.78;1052134;28;637;-74
2023/01/11 03:27:12;;;;;;;;;;;;;;;13.06;76.22;100197.00;1051273;28;862;-74
2023/01/11 03:28:03;;;;;;;;;;;;;;;13.05;76.19;100197.97;1051859;28;634;-74
2023/01/11 03:28:53;;;;;;;;;;;;;;;13.06;75.78;100205.03;1051698;28;953;-75
2023/01/11 03:29:43;;;;;;;;;;;;;;;13.06;76.14;100200.53;1051789;28;643;-75
2023/01/11 03:30:34;;;;;;;;;;;;;;;13.05;75.67;100198.81;1048278;28;641;-74
2023/01/11 03:31:24;;;;;;;;;;;;;;;13.06;75.97;100188.97;1048249;28;697;-75
2023/01/11 03:32:15;;;;;;;;;;;;;;;13.05;76.49;100192.63;1051797;28;1080;-74
2023/01/11 03:33:05;;;;;;;;;;;;;;;13.06;76.30;100195.16;1052084;28;610;-74
2023/01/11 03:33:56;;;;;;;;;;;;;;;13.06;76.28;100195.16;1051142;28;1055;-75
2023/01/11 03:34:46;;;;;;;;;;;;;;;13.06;75.79;100200.53;1052009;28;661;-74
2023/01/11 03:35:36;;;;;;;;;;;;;;;13.06;76.34;100199.69;1051768;28;759;-74
2023/01/11 03:36:27;;;;;;;;;;;;;;;13.07;76.40;100206.72;1051946;28;1894;-75
2023/01/11 03:37:17;;;;;;;;;;;;;;;13.06;75.92;100207.69;1050242;28;1111;-74
2023/01/11 03:38:08;;;;;;;;;;;;;;;13.04;75.92;100201.63;1053201;28;741;-74
2023/01/11 03:38:58;;;;;;;;;;;;;;;13.05;75.96;100198.81;1053208;28;993;-74
2023/01/11 03:39:48;;;;;;;;;;;;;;;13.06;75.77;100197.84;1053085;28;984;-74
2023/01/11 03:40:39;;;;;;;;;;;;;;;13.06;75.59;100194.31;1054070;28;1560;-75
2023/01/11 03:41:29;;;;;;;;;;;;;;;13.07;75.84;100199.53;1048875;28;1024;-74
2023/01/11 03:42:20;;;;;;;;;;;;;;;13.07;75.72;100196.03;1050122;28;645;-75
2023/01/11 03:43:10;;;;;;;;;;;;;;;13.06;75.99;100195.16;1053607;28;737;-74
2023/01/11 03:44:01;;;;;;;;;;;;;;;13.08;76.65;100197.69;1050234;28;672;-75
2023/01/11 03:44:51;;;;;;;;;;;;;;;13.07;75.59;100196.88;1052553;28;757;-74
2023/01/11 03:45:42;;;;;;;;;;;;;;;13.07;76.50;100196.88;1053675;28;1218;-74
2023/01/11 03:46:32;;;;;;;;;;;;;;;13.09;76.16;100197.56;1053356;28;749;-75
2023/01/11 03:47:23;;;;;;;;;;;;;;;13.10;76.09;100195.72;1053011;28;1247;-75
2023/01/11 03:48:13;;;;;;;;;;;;;;;13.11;75.74;100194.75;1049227;28;658;-74
2023/01/11 03:49:03;;;;;;;;;;;;;;;13.11;75.77;100202.78;1049613;28;618;-75
2023/01/11 03:49:54;;;;;;;;;;;;;;;13.09;76.37;100204.72;1050255;28;692;-75
2023/01/11 03:50:44;;;;;;;;;;;;;;;13.09;75.97;100205.59;1052813;28;1478;-75
2023/01/11 03:51:35;;;;;;;;;;;;;;;13.09;75.85;100199.38;1050222;28;618;-75
2023/01/11 03:52:25;;;;;;;;;;;;;;;13.10;76.46;100212.63;1052107;28;1233;-74
2023/01/11 03:53:16;;;;;;;;;;;;;;;13.12;76.50;100209.81;1049631;28;650;-75
2023/01/11 03:54:06;;;;;;;;;;;;;;;13.12;75.79;100207.16;1052505;28;1135;-75
2023/01/11 03:54:56;;;;;;;;;;;;;;;13.11;75.86;100208.13;1049547;28;763;-75
2023/01/11 03:55:47;;;;;;;;;;;;;;;13.09;76.46;100208.25;1052989;28;1191;-74
2023/01/11 03:56:37;;;;;;;;;;;;;;;13.10;75.81;100206.44;1053428;28;1987;-75
2023/01/11 03:57:28;;;;;;;;;;;;;;;13.09;75.80;100208.25;1053056;28;1192;-75
2023/01/11 03:58:18;;;;;;;;;;;;;;;13.09;76.31;100204.72;1053181;28;1222;-75
2023/01/11 03:59:08;;;;;;;;;;;;;;;13.09;75.86;100204.72;1053108;28;709;-75
2023/01/11 03:59:59;;;;;;;;;;;;;;;13.08;75.96;100206.56;1053288;28;681;-75
2023/01/11 04:00:49;;;;;;;;;;;;;;;13.08;76.26;100206.56;1054152;28;929;-75
2023/01/11 04:01:40;;;;;;;;;;;;;;;13.09;75.92;100199.38;1053255;28;689;-75
2023/01/11 04:02:30;;;;;;;;;;;;;;;13.07;75.82;100204.03;1052878;28;1446;-75
2023/01/11 04:03:21;;;;;;;;;;;;;;;13.08;75.58;100209.22;1046324;28;688;-75
2023/01/11 04:04:11;;;;;;;;;;;;;;;13.09;76.17;100216.28;1049872;28;720;-74
2023/01/11 04:05:01;;;;;;;;;;;;;;;13.09;76.20;100205.59;1053731;28;720;-74
2023/01/11 04:05:52;;;;;;;;;;;;;;;13.10;76.55;100206.44;1053228;28;640;-75
2023/01/11 04:06:42;;;;;;;;;;;;;;;13.10;76.19;100217.13;1052890;28;1186;-75
2023/01/11 04:07:33;;;;;;;;;;;;;;;13.09;75.88;100218.09;1050159;28;622;-75
2023/01/11 04:08:23;;;;;;;;;;;;;;;13.10;76.29;100220.66;1050802;28;1128;-75
2023/01/11 04:09:14;;;;;;;;;;;;;;;13.12;75.99;100223.19;1049647;28;662;-75
2023/01/11 04:10:04;;;;;;;;;;;;;;;13.09;76.27;100228.81;1050253;28;689;-75
2023/01/11 04:10:55;;;;;;;;;;;;;;;13.08;75.96;100219.09;1051758;28;1087;-75
2023/01/11 04:11:45;;;;;;;;;;;;;;;13.09;75.54;100221.63;1053319;28;681;-75
2023/01/11 04:12:35;;;;;;;;;;;;;;;13.09;75.87;100226.13;1051843;28;1055;-75
2023/01/11 04:13:26;;;;;;;;;;;;;;;13.10;76.11;100227.84;1053231;28;720;-74
2023/01/11 04:14:16;;;;;;;;;;;;;;;13.08;75.81;100227.97;1053239;28;1715;-75
2023/01/11 04:15:08;;;;;;;;;;;;;;;13.08;76.00;100235.13;1048986;28;772;-75
2023/01/11 04:15:58;;;;;;;;;;;;;;;13.09;75.99;100220.78;1049278;28;622;-75
2023/01/11 04:16:49;;;;;;;;;;;;;;;13.08;75.73;100222.59;1053682;28;668;-74
2023/01/11 04:17:39;;;;;;;;;;;;;;;13.08;75.70;100221.75;1053173;28;1190;-73
2023/01/11 04:18:30;;;;;;;;;;;;;;;13.09;75.66;100226.13;1053434;28;1109;-73
2023/01/11 04:19:21;;;;;;;;;;;;;;;13.08;75.77;100233.31;1053231;28;560;-73
2023/01/11 04:20:11;;;;;;;;;;;;;;;13.08;75.96;100227.09;1053611;28;725;-73
2023/01/11 04:21:02;;;;;;;;;;;;;;;13.08;76.12;100235.13;1050130;28;657;-73
2023/01/11 04:21:52;;;;;;;;;;;;;;;13.09;75.87;100234.16;1051559;28;1142;-73
2023/01/11 04:22:43;;;;;;;;;;;;;;;13.09;76.11;100244.84;1053106;28;634;-73
2023/01/11 04:23:33;;;;;;;;;;;;;;;13.09;76.01;100258.22;1049865;28;1122;-73
2023/01/11 04:24:23;;;;;;;;;;;;;;;13.09;76.45;100251.06;1053146;28;590;-72
2023/01/11 04:25:14;;;;;;;;;;;;;;;13.09;76.56;100251.06;1051249;28;1025;-73
2023/01/11 04:26:04;;;;;;;;;;;;;;;13.10;75.85;100259.94;1053073;28;688;-73
2023/01/11 04:26:55;;;;;;;;;;;;;;;13.10;76.64;100262.59;1052959;28;1600;-73
2023/01/11 04:27:45;;;;;;;;;;;;;;;13.10;75.77;100262.59;1052836;28;649;-72
2023/01/11 04:28:36;;;;;;;;;;;;;;;13.10;75.76;100266.13;1053716;28;642;-73
2023/01/11 04:29:26;;;;;;;;;;;;;;;13.09;75.85;100259.09;1053792;28;693;-73
2023/01/11 04:30:16;;;;;;;;;;;;;;;13.11;76.30;100265.16;1053026;28;677;-73
2023/01/11 04:31:07;;;;;;;;;;;;;;;13.10;75.76;100259.94;1053678;28;674;-73
2023/01/11 04:31:57;;;;;;;;;;;;;;;13.10;76.60;100260.78;1052927;28;663;-73
2023/01/11 04:32:48;;;;;;;;;;;;;;;13.10;76.23;100263.47;1053703;28;697;-73
2023/01/11 04:33:38;;;;;;;;;;;;;;;13.10;75.74;100260.78;1053347;28;638;-73
2023/01/11 04:34:29;;;;;;;;;;;;;;;13.11;76.46;100266.97;1054382;28;686;-72
2023/01/11 04:35:19;;;;;;;;;;;;;;;13.10;75.80;100263.47;1053913;28;1586;-72
2023/01/11 04:36:09;;;;;;;;;;;;;;;13.11;76.40;100270.50;1053546;28;773;-73
2023/01/11 04:37:00;;;;;;;;;;;;;;;13.10;75.60;100263.47;1050163;28;626;-72
2023/01/11 04:37:50;;;;;;;;;;;;;;;13.09;76.65;100266.25;1053792;28;864;-73
2023/01/11 04:38:41;;;;;;;;;;;;;;;13.10;75.90;100267.97;1052989;28;1214;-72
2023/01/11 04:39:31;;;;;;;;;;;;;;;13.09;75.87;100258.22;1049644;28;709;-72
2023/01/11 04:40:22;;;;;;;;;;;;;;;13.10;75.93;100263.47;1052926;28;1275;-72